sensor_id;sensor_type;location;lat;lon;timestamp;temperature;humidity
71304;DHT22;59091;47.446;19.148;2023-03-16T00:01:03;6.68;41.61
71304;DHT22;59091;47.446;19.148;2023-03-16T00:03:28;6.63;41.58
71304;DHT22;59091;47.446;19.148;2023-03-16T00:05:54;6.58;41.87
71304;DHT22;59091;47.446;19.148;2023-03-16T00:08:19;6.47;42.23
71304;DHT22;59091;47.446;19.148;2023-03-16T00:10:45;6.41;42.53
71304;DHT22;59091;47.446;19.148;2023-03-16T00:13:21;6.16;42.98
71304;DHT22;59091;47.446;19.148;2023-03-16T00:15:55;6.05;43.71
71304;DHT22;59091;47.446;19.148;2023-03-16T00:18:23;6.02;43.92
71304;DHT22;59091;47.446;19.148;2023-03-16T00:20:58;5.77;44.46
71304;DHT22;59091;47.446;19.148;2023-03-16T00:23:26;5.83;44.61
71304;DHT22;59091;47.446;19.148;2023-03-16T00:25:54;5.83;44.45
71304;DHT22;59091;47.446;19.148;2023-03-16T00:28:20;5.90;44.75
71304;DHT22;59091;47.446;19.148;2023-03-16T00:30:46;5.93;44.64
71304;DHT22;59091;47.446;19.148;2023-03-16T00:33:11;5.96;44.67
71304;DHT22;59091;47.446;19.148;2023-03-16T00:35:37;5.85;44.95
71304;DHT22;59091;47.446;19.148;2023-03-16T00:38:02;5.65;45.66
71304;DHT22;59091;47.446;19.148;2023-03-16T00:40:28;5.69;45.43
71304;DHT22;59091;47.446;19.148;2023-03-16T00:42:55;5.65;45.89
71304;DHT22;59091;47.446;19.148;2023-03-16T00:45:20;5.75;45.69
71304;DHT22;59091;47.446;19.148;2023-03-16T00:47:47;5.62;45.90
71304;DHT22;59091;47.446;19.148;2023-03-16T00:50:13;5.51;46.17
71304;DHT22;59091;47.446;19.148;2023-03-16T00:52:38;5.65;46.33
71304;DHT22;59091;47.446;19.148;2023-03-16T00:55:04;5.55;46.41
71304;DHT22;59091;47.446;19.148;2023-03-16T00:57:29;5.51;46.62
71304;DHT22;59091;47.446;19.148;2023-03-16T00:59:56;5.36;46.92
71304;DHT22;59091;47.446;19.148;2023-03-16T01:02:21;5.49;46.95
71304;DHT22;59091;47.446;19.148;2023-03-16T01:04:51;5.39;47.12
71304;DHT22;59091;47.446;19.148;2023-03-16T01:07:18;5.45;47.21
71304;DHT22;59091;47.446;19.148;2023-03-16T01:09:46;5.45;47.21
71304;DHT22;59091;47.446;19.148;2023-03-16T01:12:17;5.38;47.40
71304;DHT22;59091;47.446;19.148;2023-03-16T01:14:42;5.11;47.88
71304;DHT22;59091;47.446;19.148;2023-03-16T01:17:10;5.35;47.55
71304;DHT22;59091;47.446;19.148;2023-03-16T01:19:38;5.46;47.23
71304;DHT22;59091;47.446;19.148;2023-03-16T01:22:06;5.38;47.36
71304;DHT22;59091;47.446;19.148;2023-03-16T01:24:33;5.42;47.37
71304;DHT22;59091;47.446;19.148;2023-03-16T01:27:02;5.36;47.54
71304;DHT22;59091;47.446;19.148;2023-03-16T01:29:29;5.03;48.44
71304;DHT22;59091;47.446;19.148;2023-03-16T01:31:54;5.34;47.94
71304;DHT22;59091;47.446;19.148;2023-03-16T01:34:20;5.32;47.86
71304;DHT22;59091;47.446;19.148;2023-03-16T01:36:47;5.30;47.85
71304;DHT22;59091;47.446;19.148;2023-03-16T01:39:13;5.32;48.00
71304;DHT22;59091;47.446;19.148;2023-03-16T01:41:39;5.34;47.88
71304;DHT22;59091;47.446;19.148;2023-03-16T01:44:09;5.38;47.70
71304;DHT22;59091;47.446;19.148;2023-03-16T01:46:36;5.24;47.98
71304;DHT22;59091;47.446;19.148;2023-03-16T01:49:18;5.25;47.62
71304;DHT22;59091;47.446;19.148;2023-03-16T01:51:59;5.15;47.83
71304;DHT22;59091;47.446;19.148;2023-03-16T01:54:35;5.30;47.66
71304;DHT22;59091;47.446;19.148;2023-03-16T01:57:10;5.31;47.75
71304;DHT22;59091;47.446;19.148;2023-03-16T01:59:47;5.31;47.62
71304;DHT22;59091;47.446;19.148;2023-03-16T02:02:19;5.39;47.42
71304;DHT22;59091;47.446;19.148;2023-03-16T02:07:27;5.45;47.43
71304;DHT22;59091;47.446;19.148;2023-03-16T02:09:57;5.48;47.40
71304;DHT22;59091;47.446;19.148;2023-03-16T02:12:23;5.34;47.42
71304;DHT22;59091;47.446;19.148;2023-03-16T02:14:49;5.45;47.23
71304;DHT22;59091;47.446;19.148;2023-03-16T02:17:18;5.23;47.83
71304;DHT22;59091;47.446;19.148;2023-03-16T02:22:48;5.32;47.88
71304;DHT22;59091;47.446;19.148;2023-03-16T02:25:16;5.38;47.83
71304;DHT22;59091;47.446;19.148;2023-03-16T02:27:52;5.38;47.53
71304;DHT22;59091;47.446;19.148;2023-03-16T02:30:20;5.41;47.47
71304;DHT22;59091;47.446;19.148;2023-03-16T02:32:47;5.41;47.65
71304;DHT22;59091;47.446;19.148;2023-03-16T02:35:13;5.41;47.54
71304;DHT22;59091;47.446;19.148;2023-03-16T02:37:39;5.34;47.95
71304;DHT22;59091;47.446;19.148;2023-03-16T02:42:46;5.08;48.68
71304;DHT22;59091;47.446;19.148;2023-03-16T02:45:12;5.07;48.69
71304;DHT22;59091;47.446;19.148;2023-03-16T02:47:42;5.01;49.08
71304;DHT22;59091;47.446;19.148;2023-03-16T02:50:10;5.14;48.83
71304;DHT22;59091;47.446;19.148;2023-03-16T02:52:37;5.05;48.95
71304;DHT22;59091;47.446;19.148;2023-03-16T02:55:04;5.11;48.92
71304;DHT22;59091;47.446;19.148;2023-03-16T02:57:30;5.11;48.90
71304;DHT22;59091;47.446;19.148;2023-03-16T02:59:56;5.04;49.32
71304;DHT22;59091;47.446;19.148;2023-03-16T03:02:22;4.91;49.60
71304;DHT22;59091;47.446;19.148;2023-03-16T03:04:47;5.00;49.66
71304;DHT22;59091;47.446;19.148;2023-03-16T03:07:13;4.93;49.73
71304;DHT22;59091;47.446;19.148;2023-03-16T03:09:42;4.84;49.95
71304;DHT22;59091;47.446;19.148;2023-03-16T03:12:08;4.93;49.78
71304;DHT22;59091;47.446;19.148;2023-03-16T03:14:33;4.97;49.78
71304;DHT22;59091;47.446;19.148;2023-03-16T03:17:03;4.70;50.60
71304;DHT22;59091;47.446;19.148;2023-03-16T03:19:28;4.63;51.00
71304;DHT22;59091;47.446;19.148;2023-03-16T03:21:54;4.57;51.25
71304;DHT22;59091;47.446;19.148;2023-03-16T03:24:21;4.62;51.20
71304;DHT22;59091;47.446;19.148;2023-03-16T03:26:47;4.66;51.13
71304;DHT22;59091;47.446;19.148;2023-03-16T03:29:12;4.59;51.23
71304;DHT22;59091;47.446;19.148;2023-03-16T03:31:38;4.63;51.27
71304;DHT22;59091;47.446;19.148;2023-03-16T03:34:03;4.63;51.26
71304;DHT22;59091;47.446;19.148;2023-03-16T03:36:31;4.62;51.23
71304;DHT22;59091;47.446;19.148;2023-03-16T03:38:57;4.66;51.26
71304;DHT22;59091;47.446;19.148;2023-03-16T03:41:22;4.63;51.50
71304;DHT22;59091;47.446;19.148;2023-03-16T03:43:48;4.63;51.39
71304;DHT22;59091;47.446;19.148;2023-03-16T03:46:13;4.67;51.26
71304;DHT22;59091;47.446;19.148;2023-03-16T03:48:39;4.69;51.44
71304;DHT22;59091;47.446;19.148;2023-03-16T03:51:04;4.57;51.66
71304;DHT22;59091;47.446;19.148;2023-03-16T03:53:31;4.60;51.77
71304;DHT22;59091;47.446;19.148;2023-03-16T03:55:56;4.60;51.87
71304;DHT22;59091;47.446;19.148;2023-03-16T03:58:21;4.62;51.76
71304;DHT22;59091;47.446;19.148;2023-03-16T04:00:47;4.57;52.07
71304;DHT22;59091;47.446;19.148;2023-03-16T04:03:13;4.38;52.75
71304;DHT22;59091;47.446;19.148;2023-03-16T04:05:38;4.28;53.05
71304;DHT22;59091;47.446;19.148;2023-03-16T04:08:04;4.41;52.83
71304;DHT22;59091;47.446;19.148;2023-03-16T04:10:30;4.42;52.79
71304;DHT22;59091;47.446;19.148;2023-03-16T04:12:56;4.46;52.86
71304;DHT22;59091;47.446;19.148;2023-03-16T04:15:23;4.46;52.69
71304;DHT22;59091;47.446;19.148;2023-03-16T04:17:48;4.53;52.69
71304;DHT22;59091;47.446;19.148;2023-03-16T04:20:15;4.48;52.97
71304;DHT22;59091;47.446;19.148;2023-03-16T04:22:44;4.53;52.86
71304;DHT22;59091;47.446;19.148;2023-03-16T04:25:11;4.46;52.99
71304;DHT22;59091;47.446;19.148;2023-03-16T04:27:37;4.49;52.98
71304;DHT22;59091;47.446;19.148;2023-03-16T04:30:05;4.35;53.13
71304;DHT22;59091;47.446;19.148;2023-03-16T04:32:32;4.35;53.47
71304;DHT22;59091;47.446;19.148;2023-03-16T04:34:58;4.35;53.58
71304;DHT22;59091;47.446;19.148;2023-03-16T04:37:24;4.43;53.30
71304;DHT22;59091;47.446;19.148;2023-03-16T04:39:49;4.32;53.55
71304;DHT22;59091;47.446;19.148;2023-03-16T04:42:15;4.38;53.40
71304;DHT22;59091;47.446;19.148;2023-03-16T04:44:41;4.38;53.35
71304;DHT22;59091;47.446;19.148;2023-03-16T04:47:12;4.42;53.28
71304;DHT22;59091;47.446;19.148;2023-03-16T04:49:38;4.33;53.68
71304;DHT22;59091;47.446;19.148;2023-03-16T04:52:04;4.33;53.70
71304;DHT22;59091;47.446;19.148;2023-03-16T04:54:30;4.39;53.62
71304;DHT22;59091;47.446;19.148;2023-03-16T04:56:56;4.32;53.73
71304;DHT22;59091;47.446;19.148;2023-03-16T04:59:21;4.41;53.49
71304;DHT22;59091;47.446;19.148;2023-03-16T05:01:47;4.45;53.60
71304;DHT22;59091;47.446;19.148;2023-03-16T05:04:13;4.48;53.41
71304;DHT22;59091;47.446;19.148;2023-03-16T05:06:39;4.52;53.36
71304;DHT22;59091;47.446;19.148;2023-03-16T05:09:04;4.59;53.32
71304;DHT22;59091;47.446;19.148;2023-03-16T05:11:32;4.48;53.47
71304;DHT22;59091;47.446;19.148;2023-03-16T05:13:57;4.53;53.27
71304;DHT22;59091;47.446;19.148;2023-03-16T05:16:23;4.54;53.23
71304;DHT22;59091;47.446;19.148;2023-03-16T05:18:48;4.53;53.41
71304;DHT22;59091;47.446;19.148;2023-03-16T05:21:14;4.62;56.56
71304;DHT22;59091;47.446;19.148;2023-03-16T05:23:40;4.56;53.65
71304;DHT22;59091;47.446;19.148;2023-03-16T05:26:06;4.59;53.40
71304;DHT22;59091;47.446;19.148;2023-03-16T05:28:31;4.57;53.08
71304;DHT22;59091;47.446;19.148;2023-03-16T05:30:57;4.66;52.90
71304;DHT22;59091;47.446;19.148;2023-03-16T05:33:22;4.57;53.13
71304;DHT22;59091;47.446;19.148;2023-03-16T05:35:49;4.62;53.11
71304;DHT22;59091;47.446;19.148;2023-03-16T05:38:15;4.62;53.18
71304;DHT22;59091;47.446;19.148;2023-03-16T05:40:40;4.70;52.90
71304;DHT22;59091;47.446;19.148;2023-03-16T05:43:06;4.74;53.02
71304;DHT22;59091;47.446;19.148;2023-03-16T05:45:31;4.76;52.92
71304;DHT22;59091;47.446;19.148;2023-03-16T05:47:58;4.64;53.29
71304;DHT22;59091;47.446;19.148;2023-03-16T05:50:24;4.72;53.09
71304;DHT22;59091;47.446;19.148;2023-03-16T05:52:50;4.74;52.98
71304;DHT22;59091;47.446;19.148;2023-03-16T05:55:16;4.72;52.89
71304;DHT22;59091;47.446;19.148;2023-03-16T05:57:42;4.84;52.50
71304;DHT22;59091;47.446;19.148;2023-03-16T06:00:10;4.85;52.41
71304;DHT22;59091;47.446;19.148;2023-03-16T06:02:44;5.15;58.12
71304;DHT22;59091;47.446;19.148;2023-03-16T06:05:11;5.21;52.53
71304;DHT22;59091;47.446;19.148;2023-03-16T06:07:36;5.39;59.84
71304;DHT22;59091;47.446;19.148;2023-03-16T06:10:03;5.32;51.64
71304;DHT22;59091;47.446;19.148;2023-03-16T06:12:29;5.28;50.85
71304;DHT22;59091;47.446;19.148;2023-03-16T06:14:54;5.35;50.84
71304;DHT22;59091;47.446;19.148;2023-03-16T06:17:20;5.35;50.95
71304;DHT22;59091;47.446;19.148;2023-03-16T06:19:45;5.24;50.93
71304;DHT22;59091;47.446;19.148;2023-03-16T06:22:11;5.13;50.90
71304;DHT22;59091;47.446;19.148;2023-03-16T06:24:36;5.18;51.31
71304;DHT22;59091;47.446;19.148;2023-03-16T06:27:02;5.52;55.69
71304;DHT22;59091;47.446;19.148;2023-03-16T06:29:27;5.59;50.46
71304;DHT22;59091;47.446;19.148;2023-03-16T06:31:53;5.62;51.66
71304;DHT22;59091;47.446;19.148;2023-03-16T06:34:19;5.63;49.83
71304;DHT22;59091;47.446;19.148;2023-03-16T06:36:45;5.51;49.84
71304;DHT22;59091;47.446;19.148;2023-03-16T06:39:10;5.54;50.05
71304;DHT22;59091;47.446;19.148;2023-03-16T06:41:36;5.56;49.26
71304;DHT22;59091;47.446;19.148;2023-03-16T06:44:02;5.52;49.13
71304;DHT22;59091;47.446;19.148;2023-03-16T06:46:27;5.67;51.02
71304;DHT22;59091;47.446;19.148;2023-03-16T06:48:53;6.11;51.04
71304;DHT22;59091;47.446;19.148;2023-03-16T06:51:19;6.00;48.24
71304;DHT22;59091;47.446;19.148;2023-03-16T06:53:44;5.90;48.14
71304;DHT22;59091;47.446;19.148;2023-03-16T06:56:10;6.09;48.02
71304;DHT22;59091;47.446;19.148;2023-03-16T06:58:35;6.07;51.60
71304;DHT22;59091;47.446;19.148;2023-03-16T07:01:04;5.95;47.50
71304;DHT22;59091;47.446;19.148;2023-03-16T07:03:30;6.07;46.95
71304;DHT22;59091;47.446;19.148;2023-03-16T07:05:56;6.10;52.60
71304;DHT22;59091;47.446;19.148;2023-03-16T07:08:21;6.38;47.10
71304;DHT22;59091;47.446;19.148;2023-03-16T07:10:47;6.55;46.54
71304;DHT22;59091;47.446;19.148;2023-03-16T07:13:14;6.69;47.46
71304;DHT22;59091;47.446;19.148;2023-03-16T07:15:39;6.72;48.42
71304;DHT22;59091;47.446;19.148;2023-03-16T07:18:05;6.68;45.38
71304;DHT22;59091;47.446;19.148;2023-03-16T07:20:30;6.64;45.60
71304;DHT22;59091;47.446;19.148;2023-03-16T07:22:57;6.88;45.29
71304;DHT22;59091;47.446;19.148;2023-03-16T07:25:23;6.78;43.95
71304;DHT22;59091;47.446;19.148;2023-03-16T07:27:48;6.84;44.37
71304;DHT22;59091;47.446;19.148;2023-03-16T07:30:14;6.79;44.84
71304;DHT22;59091;47.446;19.148;2023-03-16T07:32:41;6.92;43.83
71304;DHT22;59091;47.446;19.148;2023-03-16T07:35:10;6.82;43.32
71304;DHT22;59091;47.446;19.148;2023-03-16T07:37:35;6.79;43.03
71304;DHT22;59091;47.446;19.148;2023-03-16T07:40:02;6.99;43.04
71304;DHT22;59091;47.446;19.148;2023-03-16T07:42:28;6.98;43.04
71304;DHT22;59091;47.446;19.148;2023-03-16T07:44:53;7.00;42.99
71304;DHT22;59091;47.446;19.148;2023-03-16T07:47:19;7.09;42.41
71304;DHT22;59091;47.446;19.148;2023-03-16T07:49:45;7.13;42.42
71304;DHT22;59091;47.446;19.148;2023-03-16T07:52:10;7.23;42.27
71304;DHT22;59091;47.446;19.148;2023-03-16T07:54:38;7.20;42.67
71304;DHT22;59091;47.446;19.148;2023-03-16T07:57:04;7.29;43.11
71304;DHT22;59091;47.446;19.148;2023-03-16T07:59:30;7.33;42.88
71304;DHT22;59091;47.446;19.148;2023-03-16T08:01:56;7.42;42.93
71304;DHT22;59091;47.446;19.148;2023-03-16T08:04:21;7.61;43.53
71304;DHT22;59091;47.446;19.148;2023-03-16T08:06:47;7.67;42.65
71304;DHT22;59091;47.446;19.148;2023-03-16T08:09:12;7.56;42.19
71304;DHT22;59091;47.446;19.148;2023-03-16T08:11:38;7.40;42.15
71304;DHT22;59091;47.446;19.148;2023-03-16T08:14:03;7.63;48.83
71304;DHT22;59091;47.446;19.148;2023-03-16T08:16:29;7.54;42.06
71304;DHT22;59091;47.446;19.148;2023-03-16T08:18:56;7.61;40.99
71304;DHT22;59091;47.446;19.148;2023-03-16T08:21:22;7.67;39.56
71304;DHT22;59091;47.446;19.148;2023-03-16T08:23:48;7.69;39.53
71304;DHT22;59091;47.446;19.148;2023-03-16T08:26:21;7.77;39.42
71304;DHT22;59091;47.446;19.148;2023-03-16T08:28:50;7.81;39.15
71304;DHT22;59091;47.446;19.148;2023-03-16T08:31:16;7.77;39.62
71304;DHT22;59091;47.446;19.148;2023-03-16T08:33:43;7.82;38.17
71304;DHT22;59091;47.446;19.148;2023-03-16T08:36:10;8.29;39.95
71304;DHT22;59091;47.446;19.148;2023-03-16T08:38:37;8.08;38.32
71304;DHT22;59091;47.446;19.148;2023-03-16T08:41:04;9.13;56.98
71304;DHT22;59091;47.446;19.148;2023-03-16T08:43:30;8.96;37.03
71304;DHT22;59091;47.446;19.148;2023-03-16T08:45:57;8.69;37.64
71304;DHT22;59091;47.446;19.148;2023-03-16T08:48:24;8.67;38.78
71304;DHT22;59091;47.446;19.148;2023-03-16T08:50:49;8.60;37.54
71304;DHT22;59091;47.446;19.148;2023-03-16T08:53:16;8.25;37.09
71304;DHT22;59091;47.446;19.148;2023-03-16T08:55:43;8.36;37.00
71304;DHT22;59091;47.446;19.148;2023-03-16T08:58:10;8.45;37.50
71304;DHT22;59091;47.446;19.148;2023-03-16T09:00:37;8.48;37.40
71304;DHT22;59091;47.446;19.148;2023-03-16T09:03:03;8.57;37.21
71304;DHT22;59091;47.446;19.148;2023-03-16T09:05:29;8.64;37.53
71304;DHT22;59091;47.446;19.148;2023-03-16T09:07:54;8.74;36.75
71304;DHT22;59091;47.446;19.148;2023-03-16T09:10:21;8.77;37.33
71304;DHT22;59091;47.446;19.148;2023-03-16T09:12:51;8.76;36.74
71304;DHT22;59091;47.446;19.148;2023-03-16T09:15:18;8.69;36.07
71304;DHT22;59091;47.446;19.148;2023-03-16T09:17:46;8.90;37.85
71304;DHT22;59091;47.446;19.148;2023-03-16T09:20:14;9.01;38.00
71304;DHT22;59091;47.446;19.148;2023-03-16T09:22:40;8.93;36.48
71304;DHT22;59091;47.446;19.148;2023-03-16T09:25:07;10.16;53.22
71304;DHT22;59091;47.446;19.148;2023-03-16T09:27:35;10.51;36.44
71304;DHT22;59091;47.446;19.148;2023-03-16T09:30:04;9.69;33.97
71304;DHT22;59091;47.446;19.148;2023-03-16T09:32:29;9.54;34.28
71304;DHT22;59091;47.446;19.148;2023-03-16T09:34:55;9.55;34.80
71304;DHT22;59091;47.446;19.148;2023-03-16T09:37:21;9.15;33.97
71304;DHT22;59091;47.446;19.148;2023-03-16T09:39:48;9.76;52.79
71304;DHT22;59091;47.446;19.148;2023-03-16T09:42:43;10.94;49.67
71304;DHT22;59091;47.446;19.148;2023-03-16T09:45:22;10.23;32.04
71304;DHT22;59091;47.446;19.148;2023-03-16T09:47:55;10.50;32.75
71304;DHT22;59091;47.446;19.148;2023-03-16T09:50:32;10.40;33.29
71304;DHT22;59091;47.446;19.148;2023-03-16T09:55:35;10.07;32.58
71304;DHT22;59091;47.446;19.148;2023-03-16T09:58:04;10.06;33.60
71304;DHT22;59091;47.446;19.148;2023-03-16T10:00:37;10.07;32.96
71304;DHT22;59091;47.446;19.148;2023-03-16T10:03:20;9.81;32.51
71304;DHT22;59091;47.446;19.148;2023-03-16T10:06:03;9.66;32.92
71304;DHT22;59091;47.446;19.148;2023-03-16T10:08:42;9.63;34.84
71304;DHT22;59091;47.446;19.148;2023-03-16T10:14:00;9.76;35.74
71304;DHT22;59091;47.446;19.148;2023-03-16T10:16:47;9.83;36.21
71304;DHT22;59091;47.446;19.148;2023-03-16T10:19:19;9.92;35.27
71304;DHT22;59091;47.446;19.148;2023-03-16T10:21:49;9.89;33.83
71304;DHT22;59091;47.446;19.148;2023-03-16T10:27:17;9.89;34.21
71304;DHT22;59091;47.446;19.148;2023-03-16T10:29:45;10.03;34.86
71304;DHT22;59091;47.446;19.148;2023-03-16T10:32:14;10.24;35.34
71304;DHT22;59091;47.446;19.148;2023-03-16T10:34:44;10.32;34.59
71304;DHT22;59091;47.446;19.148;2023-03-16T10:37:12;10.27;31.65
71304;DHT22;59091;47.446;19.148;2023-03-16T10:39:38;11.95;49.95
71304;DHT22;59091;47.446;19.148;2023-03-16T10:42:13;11.87;30.82
71304;DHT22;59091;47.446;19.148;2023-03-16T10:44:40;11.15;29.07
71304;DHT22;59091;47.446;19.148;2023-03-16T10:47:06;11.01;29.20
71304;DHT22;59091;47.446;19.148;2023-03-16T10:49:40;10.82;28.16
71304;DHT22;59091;47.446;19.148;2023-03-16T10:54:48;11.01;28.50
71304;DHT22;59091;47.446;19.148;2023-03-16T10:57:22;10.71;28.71
71304;DHT22;59091;47.446;19.148;2023-03-16T10:59:49;10.71;28.92
71304;DHT22;59091;47.446;19.148;2023-03-16T11:02:31;10.64;28.72
71304;DHT22;59091;47.446;19.148;2023-03-16T11:04:57;10.69;29.27
71304;DHT22;59091;47.446;19.148;2023-03-16T11:07:23;10.75;28.94
71304;DHT22;59091;47.446;19.148;2023-03-16T11:09:54;10.89;30.40
71304;DHT22;59091;47.446;19.148;2023-03-16T11:12:26;10.54;28.16
71304;DHT22;59091;47.446;19.148;2023-03-16T11:15:00;10.54;28.66
71304;DHT22;59091;47.446;19.148;2023-03-16T11:17:43;10.79;29.42
71304;DHT22;59091;47.446;19.148;2023-03-16T11:20:15;10.79;27.86
71304;DHT22;59091;47.446;19.148;2023-03-16T11:22:43;10.92;28.67
71304;DHT22;59091;47.446;19.148;2023-03-16T11:25:32;10.85;28.06
71304;DHT22;59091;47.446;19.148;2023-03-16T11:30:28;11.01;28.50
71304;DHT22;59091;47.446;19.148;2023-03-16T11:32:55;11.20;27.95
71304;DHT22;59091;47.446;19.148;2023-03-16T11:38:49;11.01;25.92
71304;DHT22;59091;47.446;19.148;2023-03-16T11:41:24;10.98;27.38
71304;DHT22;59091;47.446;19.148;2023-03-16T11:43:55;11.08;27.88
71304;DHT22;59091;47.446;19.148;2023-03-16T11:46:26;11.15;27.77
71304;DHT22;59091;47.446;19.148;2023-03-16T11:52:11;11.18;27.58
71304;DHT22;59091;47.446;19.148;2023-03-16T12:05:57;11.30;27.12
71304;DHT22;59091;47.446;19.148;2023-03-16T12:11:39;11.36;26.29
71304;DHT22;59091;47.446;19.148;2023-03-16T12:17:08;11.23;24.54
71304;DHT22;59091;47.446;19.148;2023-03-16T12:19:42;11.36;24.81
71304;DHT22;59091;47.446;19.148;2023-03-16T12:22:19;11.33;25.97
71304;DHT22;59091;47.446;19.148;2023-03-16T12:24:47;11.62;27.86
71304;DHT22;59091;47.446;19.148;2023-03-16T12:27:32;11.53;27.21
71304;DHT22;59091;47.446;19.148;2023-03-16T12:38:43;12.16;25.82
71304;DHT22;59091;47.446;19.148;2023-03-16T12:41:34;11.83;22.41
71304;DHT22;59091;47.446;19.148;2023-03-16T12:46:51;11.83;21.47
71304;DHT22;59091;47.446;19.148;2023-03-16T12:49:22;11.76;21.38
71304;DHT22;59091;47.446;19.148;2023-03-16T12:52:01;11.39;21.59
71304;DHT22;59091;47.446;19.148;2023-03-16T12:54:27;11.73;22.60
71304;DHT22;59091;47.446;19.148;2023-03-16T12:57:08;11.59;20.80
71304;DHT22;59091;47.446;19.148;2023-03-16T12:59:44;11.44;21.07
71304;DHT22;59091;47.446;19.148;2023-03-16T13:02:29;11.57;20.39
71304;DHT22;59091;47.446;19.148;2023-03-16T13:05:12;11.53;20.42
71304;DHT22;59091;47.446;19.148;2023-03-16T13:07:49;11.57;20.87
71304;DHT22;59091;47.446;19.148;2023-03-16T13:10:16;11.66;20.96
71304;DHT22;59091;47.446;19.148;2023-03-16T13:12:45;11.66;20.28
71304;DHT22;59091;47.446;19.148;2023-03-16T13:17:49;11.62;20.38
71304;DHT22;59091;47.446;19.148;2023-03-16T13:20:27;11.56;20.67
71304;DHT22;59091;47.446;19.148;2023-03-16T13:26:50;11.53;21.27
71304;DHT22;59091;47.446;19.148;2023-03-16T13:29:24;11.62;21.06
71304;DHT22;59091;47.446;19.148;2023-03-16T13:31:52;11.62;21.42
71304;DHT22;59091;47.446;19.148;2023-03-16T13:34:30;11.66;20.74
71304;DHT22;59091;47.446;19.148;2023-03-16T13:36:57;11.63;20.25
71304;DHT22;59091;47.446;19.148;2023-03-16T13:39:26;11.50;20.41
71304;DHT22;59091;47.446;19.148;2023-03-16T13:42:13;11.63;20.11
71304;DHT22;59091;47.446;19.148;2023-03-16T13:44:41;11.71;19.36
71304;DHT22;59091;47.446;19.148;2023-03-16T13:47:11;11.70;19.21
71304;DHT22;59091;47.446;19.148;2023-03-16T13:49:45;11.52;18.93
71304;DHT22;59091;47.446;19.148;2023-03-16T13:52:27;11.59;19.92
71304;DHT22;59091;47.446;19.148;2023-03-16T13:54:54;11.53;20.08
71304;DHT22;59091;47.446;19.148;2023-03-16T13:57:24;11.63;20.07
71304;DHT22;59091;47.446;19.148;2023-03-16T13:59:51;11.47;19.23
71304;DHT22;59091;47.446;19.148;2023-03-16T14:02:23;11.29;19.64
71304;DHT22;59091;47.446;19.148;2023-03-16T14:04:48;11.26;19.61
71304;DHT22;59091;47.446;19.148;2023-03-16T14:07:19;11.50;19.96
71304;DHT22;59091;47.446;19.148;2023-03-16T14:09:45;11.29;18.81
71304;DHT22;59091;47.446;19.148;2023-03-16T14:12:18;11.29;19.65
71304;DHT22;59091;47.446;19.148;2023-03-16T14:14:49;11.46;19.91
71304;DHT22;59091;47.446;19.148;2023-03-16T14:17:20;11.56;19.10
71304;DHT22;59091;47.446;19.148;2023-03-16T14:19:51;11.43;19.68
71304;DHT22;59091;47.446;19.148;2023-03-16T14:22:30;11.49;19.72
71304;DHT22;59091;47.446;19.148;2023-03-16T14:24:58;11.37;19.74
71304;DHT22;59091;47.446;19.148;2023-03-16T14:27:28;11.46;20.33
71304;DHT22;59091;47.446;19.148;2023-03-16T14:30:01;11.47;18.47
71304;DHT22;59091;47.446;19.148;2023-03-16T14:32:30;11.39;18.51
71304;DHT22;59091;47.446;19.148;2023-03-16T14:35:08;11.53;19.01
71304;DHT22;59091;47.446;19.148;2023-03-16T14:37:35;11.78;20.86
71304;DHT22;59091;47.446;19.148;2023-03-16T14:40:05;11.63;19.49
71304;DHT22;59091;47.446;19.148;2023-03-16T14:42:32;11.69;18.80
71304;DHT22;59091;47.446;19.148;2023-03-16T14:44:59;11.67;22.56
71304;DHT22;59091;47.446;19.148;2023-03-16T14:47:31;11.52;17.93
71304;DHT22;59091;47.446;19.148;2023-03-16T14:50:05;11.59;18.07
71304;DHT22;59091;47.446;19.148;2023-03-16T14:52:31;11.59;18.89
71304;DHT22;59091;47.446;19.148;2023-03-16T14:55:09;11.25;19.36
71304;DHT22;59091;47.446;19.148;2023-03-16T14:57:35;11.20;19.01
71304;DHT22;59091;47.446;19.148;2023-03-16T15:00:01;11.25;19.39
71304;DHT22;59091;47.446;19.148;2023-03-16T15:02:30;11.37;19.53
71304;DHT22;59091;47.446;19.148;2023-03-16T15:04:57;11.29;19.86
71304;DHT22;59091;47.446;19.148;2023-03-16T15:07:27;11.23;19.68
71304;DHT22;59091;47.446;19.148;2023-03-16T15:09:56;11.29;19.96
71304;DHT22;59091;47.446;19.148;2023-03-16T15:12:22;11.15;19.56
71304;DHT22;59091;47.446;19.148;2023-03-16T15:14:50;11.14;19.80
71304;DHT22;59091;47.446;19.148;2023-03-16T15:17:34;11.12;19.24
71304;DHT22;59091;47.446;19.148;2023-03-16T15:20:01;11.30;19.68
71304;DHT22;59091;47.446;19.148;2023-03-16T15:22:32;11.33;19.10
71304;DHT22;59091;47.446;19.148;2023-03-16T15:27:42;11.12;18.99
71304;DHT22;59091;47.446;19.148;2023-03-16T15:30:15;10.82;18.85
71304;DHT22;59091;47.446;19.148;2023-03-16T15:32:41;11.04;19.64
71304;DHT22;59091;47.446;19.148;2023-03-16T15:35:06;11.02;18.89
71304;DHT22;59091;47.446;19.148;2023-03-16T15:37:32;11.14;19.09
71304;DHT22;59091;47.446;19.148;2023-03-16T15:39:58;11.14;19.08
71304;DHT22;59091;47.446;19.148;2023-03-16T15:42:23;11.12;19.41
71304;DHT22;59091;47.446;19.148;2023-03-16T15:44:50;10.98;19.58
71304;DHT22;59091;47.446;19.148;2023-03-16T15:47:15;11.06;19.74
71304;DHT22;59091;47.446;19.148;2023-03-16T15:49:41;10.99;19.78
71304;DHT22;59091;47.446;19.148;2023-03-16T15:52:28;10.99;19.92
71304;DHT22;59091;47.446;19.148;2023-03-16T15:54:55;11.02;20.14
71304;DHT22;59091;47.446;19.148;2023-03-16T15:57:21;11.09;20.30
71304;DHT22;59091;47.446;19.148;2023-03-16T15:59:47;11.29;20.21
71304;DHT22;59091;47.446;19.148;2023-03-16T16:02:31;11.20;20.30
71304;DHT22;59091;47.446;19.148;2023-03-16T16:04:57;10.99;20.26
71304;DHT22;59091;47.446;19.148;2023-03-16T16:07:22;10.98;20.57
71304;DHT22;59091;47.446;19.148;2023-03-16T16:09:48;10.95;20.57
71304;DHT22;59091;47.446;19.148;2023-03-16T16:12:14;11.01;20.89
71304;DHT22;59091;47.446;19.148;2023-03-16T16:14:41;11.05;21.17
71304;DHT22;59091;47.446;19.148;2023-03-16T16:17:14;10.95;21.18
71304;DHT22;59091;47.446;19.148;2023-03-16T16:19:52;10.85;20.64
71304;DHT22;59091;47.446;19.148;2023-03-16T16:22:18;10.92;20.93
71304;DHT22;59091;47.446;19.148;2023-03-16T16:24:44;10.72;20.83
71304;DHT22;59091;47.446;19.148;2023-03-16T16:27:11;10.87;23.95
71304;DHT22;59091;47.446;19.148;2023-03-16T16:29:37;10.85;20.77
71304;DHT22;59091;47.446;19.148;2023-03-16T16:32:02;10.87;21.42
71304;DHT22;59091;47.446;19.148;2023-03-16T16:34:28;10.94;21.23
71304;DHT22;59091;47.446;19.148;2023-03-16T16:36:55;11.01;22.70
71304;DHT22;59091;47.446;19.148;2023-03-16T16:39:21;11.01;24.61